Time;durP1;ratioP1;P1;durP2;ratioP2;P2;SDS_P1;SDS_P2;PMS_P1;PMS_P2;Temp;Humidity;BMP_temperature;BMP_pressure;BME280_temperature;BME280_humidity;BME280_pressure;Samples;Min_cycle;Max_cycle;Signal;HPM_P1;HPM_P2
2022/07/15 00:01:41;;;;;;;3.47;1.90;;;;;;;24.04;38.53;99380.56;5035464;28;20017;-90
2022/07/15 00:04:07;;;;;;;3.50;2.15;;;;;;;24.76;38.67;99511.75;5035271;28;20528;-90
2022/07/15 00:06:33;;;;;;;1.95;1.45;;;;;;;24.51;38.66;99495.53;5035303;28;20120;-90
2022/07/15 00:08:58;;;;;;;4.53;1.77;;;;;;;24.57;38.55;99487.19;5035463;28;20029;-91
2022/07/15 00:11:24;;;;;;;1.98;1.50;;;;;;;23.76;38.94;99361.13;5035292;28;20037;-91
2022/07/15 00:13:49;;;;;;;2.25;1.70;;;;;;;23.86;38.82;99399.97;5035068;28;20025;-91
2022/07/15 00:16:15;;;;;;;2.65;1.60;;;;;;;23.84;38.97;99402.94;5035020;28;20021;-90
2022/07/15 00:18:41;;;;;;;3.15;1.42;;;;;;;24.43;38.90;99504.97;5034665;28;20018;-90
2022/07/15 00:21:07;;;;;;;3.15;1.75;;;;;;;24.11;39.08;99453.94;5034828;28;20104;-90
2022/07/15 00:23:32;;;;;;;3.45;1.60;;;;;;;23.87;39.22;99444.75;5035003;28;20052;-90
2022/07/15 00:25:58;;;;;;;3.17;1.83;;;;;;;24.02;39.47;99469.03;5034381;28;20467;-90
2022/07/15 00:28:24;;;;;;;3.63;1.70;;;;;;;23.90;39.52;99465.78;5034422;28;20494;-90
2022/07/15 00:30:50;;;;;;;1.85;1.42;;;;;;;23.92;39.65;99488.72;5034400;28;20056;-90
2022/07/15 00:33:16;;;;;;;2.78;1.70;;;;;;;23.95;39.79;99487.38;5035506;28;20057;-90
2022/07/15 00:35:41;;;;;;;2.58;1.55;;;;;;;23.37;39.70;99420.03;5035019;28;20030;-90
2022/07/15 00:38:09;;;;;;;1.98;1.65;;;;;;;23.87;39.74;99488.69;5034333;28;20079;-90
2022/07/15 00:40:49;;;;;;;1.75;1.65;;;;;;;23.83;39.96;99492.19;5033949;28;20029;-90
2022/07/15 00:43:16;;;;;;;3.35;1.90;;;;;;;23.63;40.17;99488.34;5034880;28;20079;-90
2022/07/15 00:45:42;;;;;;;5.15;2.03;;;;;;;23.48;40.34;99495.53;5034016;28;20052;-91
2022/07/15 00:48:07;;;;;;;2.47;1.75;;;;;;;22.79;40.57;99407.63;5034115;28;20026;-90
2022/07/15 00:50:33;;;;;;;3.20;1.45;;;;;;;22.68;40.81;99392.47;5034542;28;20021;-91
2022/07/15 00:53:07;;;;;;;1.75;1.60;;;;;;;23.09;41.12;99477.03;5040810;28;20030;-90
2022/07/15 00:55:37;;;;;;;2.33;1.73;;;;;;;22.98;41.67;99476.13;5053391;28;20047;-90
2022/07/15 00:58:04;;;;;;;3.35;1.67;;;;;;;22.78;41.58;99473.28;5047170;28;20049;-90
2022/07/15 01:00:31;;;;;;;3.45;1.63;;;;;;;22.91;41.54;99474.75;5034774;28;20033;-90
2022/07/15 01:03:02;;;;;;;3.53;1.67;;;;;;;22.60;41.55;99458.38;5034757;28;20032;-91
2022/07/15 01:05:29;;;;;;;2.60;1.60;;;;;;;22.65;41.68;99477.25;5033880;28;20076;-90
2022/07/15 01:07:55;;;;;;;3.42;1.90;;;;;;;21.35;41.87;99284.94;5033935;28;20175;-90
2022/07/15 01:10:22;;;;;;;3.83;1.50;;;;;;;21.98;41.90;99343.28;5033375;28;20061;-90
2022/07/15 01:12:49;;;;;;;1.92;1.42;;;;;;;22.57;41.83;99441.94;5033520;28;20036;-90
2022/07/15 01:15:16;;;;;;;1.83;1.67;;;;;;;22.39;41.83;99417.06;5033552;28;20037;-90
2022/07/15 01:17:44;;;;;;;2.28;1.48;;;;;;;22.61;41.95;99461.88;5033145;28;20025;-90
2022/07/15 01:20:10;;;;;;;3.22;1.80;;;;;;;22.55;42.05;99455.63;5033030;28;20035;-90
2022/07/15 01:22:35;;;;;;;1.83;1.50;;;;;;;22.06;42.24;99395.78;5033072;28;20026;-90
2022/07/15 01:25:00;;;;;;;6.00;2.00;;;;;;;21.67;42.11;99320.72;5034246;28;20029;-90
2022/07/15 01:27:27;;;;;;;1.83;1.60;;;;;;;22.30;42.21;99432.06;5034331;28;20033;-91
2022/07/15 01:29:53;;;;;;;1.98;1.63;;;;;;;21.55;42.24;99341.53;5033352;28;20033;-90
2022/07/15 01:32:18;;;;;;;2.35;1.77;;;;;;;22.30;42.33;99426.69;5033199;28;20520;-90
2022/07/15 01:34:43;;;;;;;2.90;1.70;;;;;;;21.54;42.38;99318.41;5033226;28;20170;-91
2022/07/15 01:37:09;;;;;;;3.03;1.58;;;;;;;20.54;42.61;99182.88;5034484;28;20117;-90
2022/07/15 01:39:34;;;;;;;2.40;1.73;;;;;;;21.39;42.86;99312.91;5033488;28;20029;-90
2022/07/15 01:42:00;;;;;;;3.55;1.85;;;;;;;22.05;42.69;99426.44;5033878;28;20521;-90
2022/07/15 01:44:25;;;;;;;2.83;1.48;;;;;;;21.64;42.91;99374.97;5033064;28;20029;-90
2022/07/15 01:46:51;;;;;;;2.30;1.60;;;;;;;21.84;42.91;99404.72;5033067;28;20120;-90
2022/07/15 01:49:22;;;;;;;4.63;1.60;;;;;;;21.56;42.80;99338.63;5032711;28;20029;-91
2022/07/15 01:51:56;;;;;;;3.13;1.73;;;;;;;22.20;43.11;99446.19;5032715;28;20057;-90
2022/07/15 01:54:23;;;;;;;2.25;1.60;;;;;;;22.20;43.01;99448.06;5032901;28;20395;-90
2022/07/15 01:56:50;;;;;;;3.70;1.45;;;;;;;22.16;43.04;99466.59;5033564;28;20053;-90
2022/07/15 01:59:16;;;;;;;1.90;1.60;;;;;;;21.51;43.13;99349.28;5033625;28;20088;-89
2022/07/15 02:01:43;;;;;;;3.42;1.80;;;;;;;21.98;43.03;99437.38;5032571;28;20041;-90
2022/07/15 02:04:09;;;;;;;2.85;1.90;;;;;;;21.93;43.17;99458.00;5032654;28;20025;-90
2022/07/15 02:06:35;;;;;;;3.28;1.63;;;;;;;21.74;43.12;99406.50;5032594;28;20494;-90
2022/07/15 02:09:00;;;;;;;4.68;1.83;;;;;;;21.40;43.14;99358.31;5032518;28;20038;-90
2022/07/15 02:11:26;;;;;;;5.07;1.65;;;;;;;21.34;43.29;99328.97;5032418;28;20034;-91
2022/07/15 02:13:58;;;;;;;3.30;1.70;;;;;;;21.29;43.24;99326.25;5033580;28;20029;-90
2022/07/15 02:16:25;;;;;;;3.35;1.88;;;;;;;22.05;43.43;99462.19;5032502;28;20029;-91
2022/07/15 02:18:51;;;;;;;3.72;1.80;;;;;;;21.55;43.24;99398.78;5033310;28;20033;-90
2022/07/15 02:21:17;;;;;;;2.20;1.52;;;;;;;22.02;43.31;99492.25;5033524;28;20501;-90
2022/07/15 02:23:42;;;;;;;2.85;1.70;;;;;;;21.45;43.25;99392.47;5032166;28;20021;-90
2022/07/15 02:26:08;;;;;;;2.63;1.73;;;;;;;21.31;43.52;99350.97;5032554;28;20465;-90
2022/07/15 02:28:34;;;;;;;2.72;1.88;;;;;;;21.91;43.75;99466.34;5032688;28;20025;-90
2022/07/15 02:30:59;;;;;;;3.97;2.67;;;;;;;21.45;43.77;99390.59;5033629;28;20468;-90
2022/07/15 02:33:25;;;;;;;3.35;2.15;;;;;;;21.30;43.64;99381.56;5032394;28;20025;-90
2022/07/15 02:35:50;;;;;;;3.80;1.75;;;;;;;21.19;43.80;99354.56;5032318;28;20025;-90
2022/07/15 02:38:17;;;;;;;2.10;1.73;;;;;;;21.23;43.91;99365.66;5032328;28;20102;-90
2022/07/15 02:40:43;;;;;;;4.05;1.83;;;;;;;20.62;43.92;99269.09;5033756;28;20032;-90
2022/07/15 02:43:09;;;;;;;3.83;2.08;;;;;;;21.83;44.08;99470.28;5033559;28;20030;-90
2022/07/15 02:45:36;;;;;;;2.47;1.60;;;;;;;21.26;43.94;99394.69;5033261;28;20460;-90
2022/07/15 02:48:03;;;;;;;3.35;1.83;;;;;;;21.92;43.84;99472.53;5032600;28;20478;-90
2022/07/15 02:50:28;;;;;;;5.32;2.15;;;;;;;21.92;43.82;99478.72;5033178;28;20059;-89
2022/07/15 02:52:54;;;;;;;2.13;1.98;;;;;;;21.89;44.00;99461.22;5033723;28;20084;-90
2022/07/15 02:55:20;;;;;;;2.70;2.00;;;;;;;21.53;43.96;99438.50;5033860;28;20051;-90
2022/07/15 02:57:45;;;;;;;4.93;2.08;;;;;;;21.64;43.95;99444.03;5039716;28;20055;-90
2022/07/15 03:00:14;;;;;;;8.50;2.40;;;;;;;20.43;44.23;99251.69;5044588;28;20418;-89
2022/07/15 03:02:40;;;;;;;5.82;2.13;;;;;;;21.65;43.89;99442.94;5048318;28;20081;-89
2022/07/15 03:05:07;;;;;;;3.47;1.80;;;;;;;21.39;44.53;99420.34;5045308;28;20536;-90
2022/07/15 03:07:33;;;;;;;2.28;1.70;;;;;;;21.46;44.37;99427.16;5033264;28;20112;-90
2022/07/15 03:09:58;;;;;;;4.35;2.05;;;;;;;21.77;44.22;99459.75;5040925;28;20053;-89
2022/07/15 03:12:24;;;;;;;3.30;1.77;;;;;;;21.15;44.44;99366.06;5046952;28;20033;-90
2022/07/15 03:14:50;;;;;;;4.57;1.77;;;;;;;21.10;44.34;99385.63;5047296;28;20093;-89
2022/07/15 03:17:15;;;;;;;5.53;2.00;;;;;;;21.36;44.41;99402.84;5032626;28;20131;-89
2022/07/15 03:19:41;;;;;;;3.28;2.05;;;;;;;21.12;44.34;99367.38;5031397;28;20029;-89
2022/07/15 03:22:07;;;;;;;4.65;2.10;;;;;;;21.81;44.27;99471.59;5032664;28;20027;-89
2022/07/15 03:24:33;;;;;;;5.18;2.20;;;;;;;21.56;44.39;99443.41;5032601;28;20556;-91
2022/07/15 03:26:59;;;;;;;6.18;2.35;;;;;;;21.14;44.69;99396.66;5032032;28;20502;-91
2022/07/15 03:29:25;;;;;;;2.55;1.98;;;;;;;21.12;44.60;99377.31;5031547;28;20033;-90
2022/07/15 03:31:50;;;;;;;3.75;2.00;;;;;;;20.86;44.68;99333.25;5031803;28;20028;-90
2022/07/15 03:34:16;;;;;;;5.18;2.10;;;;;;;20.96;44.65;99357.53;5031493;28;20506;-91
2022/07/15 03:36:41;;;;;;;5.10;1.88;;;;;;;20.67;44.72;99338.09;5031606;28;20032;-91
2022/07/15 03:39:08;;;;;;;4.00;2.10;;;;;;;21.48;44.79;99456.44;5032114;28;20064;-91
2022/07/15 03:41:34;;;;;;;6.53;2.50;;;;;;;21.65;44.73;99472.50;5032448;28;20025;-91
2022/07/15 03:44:00;;;;;;;5.20;2.13;;;;;;;21.65;44.93;99477.88;5033241;28;20030;-91
2022/07/15 03:46:27;;;;;;;5.07;2.47;;;;;;;21.64;44.93;99479.75;5032235;28;20048;-91
2022/07/15 03:48:53;;;;;;;3.47;1.98;;;;;;;21.30;44.92;99417.28;5032079;28;20021;-91
2022/07/15 03:51:18;;;;;;;5.97;2.40;;;;;;;21.40;44.84;99449.63;5031909;28;20037;-91
2022/07/15 03:53:44;;;;;;;4.40;2.33;;;;;;;20.50;44.88;99297.91;5032178;28;20030;-91
2022/07/15 03:56:10;;;;;;;5.20;2.30;;;;;;;21.25;44.83;99409.19;5031833;28;20585;-90
2022/07/15 03:58:35;;;;;;;3.22;2.40;;;;;;;21.08;44.69;99370.81;5033286;28;20068;-90
2022/07/15 04:01:00;;;;;;;6.40;2.00;;;;;;;21.32;44.58;99414.34;5038822;28;20030;-91
2022/07/15 04:03:27;;;;;;;4.40;2.15;;;;;;;20.27;44.44;99247.97;5038378;28;20418;-91
2022/07/15 04:05:52;;;;;;;3.03;2.08;;;;;;;21.63;44.35;99434.34;5036442;28;20047;-90
2022/07/15 04:08:18;;;;;;;4.30;2.00;;;;;;;21.49;44.14;99407.03;5034996;28;20544;-91
2022/07/15 04:10:43;;;;;;;3.08;2.10;;;;;;;21.35;44.23;99366.31;5034292;28;20426;-91
2022/07/15 04:13:08;;;;;;;4.85;2.10;;;;;;;21.45;44.18;99408.59;5035885;28;20116;-91
2022/07/15 04:15:34;;;;;;;4.43;2.08;;;;;;;21.89;44.29;99469.28;5034995;28;20032;-91
2022/07/15 04:18:01;;;;;;;5.55;2.33;;;;;;;22.13;44.12;99482.44;5038539;28;20026;-91
2022/07/15 04:20:27;;;;;;;3.38;2.40;;;;;;;21.50;44.46;99395.22;5039616;28;20080;-91
2022/07/15 04:22:52;;;;;;;3.65;2.28;;;;;;;22.07;44.16;99492.34;5038590;28;20548;-91
2022/07/15 04:25:19;;;;;;;5.18;3.03;;;;;;;21.95;44.32;99451.31;5039083;28;20025;-90
2022/07/15 04:27:45;;;;;;;3.85;2.25;;;;;;;21.55;44.26;99379.16;5038295;28;20121;-90
2022/07/15 04:30:12;;;;;;;5.38;2.63;;;;;;;22.03;44.19;99440.13;5035225;28;20037;-91
2022/07/15 04:32:38;;;;;;;7.78;2.40;;;;;;;22.03;44.13;99440.13;5034700;28;20037;-91
2022/07/15 04:35:04;;;;;;;3.58;2.22;;;;;;;22.04;43.92;99436.38;5034653;28;20062;-91
2022/07/15 04:37:30;;;;;;;3.13;2.35;;;;;;;22.14;43.98;99435.66;5035926;28;20029;-91
2022/07/15 04:39:56;;;;;;;7.80;2.42;;;;;;;22.22;43.73;99429.00;5035437;28;20036;-91
2022/07/15 04:42:21;;;;;;;4.18;2.25;;;;;;;21.81;43.69;99366.78;5034635;28;20029;-91
2022/07/15 04:44:47;;;;;;;8.88;3.08;;;;;;;22.59;43.62;99489.03;5034583;28;20048;-90
2022/07/15 04:47:15;;;;;;;5.60;2.92;;;;;;;22.43;43.39;99420.03;5039381;28;20032;-91
2022/07/15 04:52:25;;;;;;;5.35;2.55;;;;;;;21.96;43.71;99339.22;5057311;28;20090;-91
2022/07/15 04:54:51;;;;;;;5.78;2.47;;;;;;;22.29;43.59;99406.19;5041677;28;20085;-91
2022/07/15 04:57:17;;;;;;;7.32;2.67;;;;;;;22.29;43.62;99365.03;5036931;28;20504;-90
2022/07/15 04:59:43;;;;;;;8.95;2.70;;;;;;;22.61;43.50;99399.97;5052515;28;20029;-89
2022/07/15 05:02:08;;;;;;;7.05;2.45;;;;;;;22.79;43.36;99413.81;5057660;28;20048;-90
2022/07/15 05:04:34;;;;;;;5.63;2.53;;;;;;;23.21;43.16;99469.53;5052373;28;20057;-91
2022/07/15 05:06:59;;;;;;;5.75;2.55;;;;;;;23.30;43.27;99477.94;5034946;28;20025;-90
2022/07/15 05:09:25;;;;;;;5.05;2.42;;;;;;;22.05;43.31;99270.50;5034480;28;20413;-91
2022/07/15 05:11:50;;;;;;;8.02;2.80;;;;;;;23.00;43.34;99419.31;5034102;28;20037;-91
2022/07/15 05:14:16;;;;;;;6.25;2.67;;;;;;;22.01;43.01;99250.53;5033118;28;20036;-91
2022/07/15 05:16:42;;;;;;;5.00;2.20;;;;;;;23.11;43.26;99418.31;5034119;28;20025;-91
2022/07/15 05:19:07;;;;;;;4.53;2.40;;;;;;;23.68;42.96;99484.84;5033808;28;20039;-91
2022/07/15 05:21:33;;;;;;;5.78;2.58;;;;;;;23.31;42.85;99394.16;5034529;28;20030;-91
2022/07/15 05:23:58;;;;;;;7.25;3.17;;;;;;;23.39;42.44;99403.59;5034248;28;20029;-91
2022/07/15 05:26:24;;;;;;;6.35;2.67;;;;;;;23.72;42.03;99440.91;5034240;28;20036;-91
2022/07/15 05:28:49;;;;;;;4.13;2.58;;;;;;;23.54;41.92;99410.91;5035172;28;20033;-90
2022/07/15 05:31:15;;;;;;;4.30;3.22;;;;;;;23.04;41.63;99318.94;5034128;28;20033;-90
2022/07/15 05:33:40;;;;;;;7.07;3.20;;;;;;;24.18;41.20;99473.38;5034091;28;20021;-90
2022/07/15 05:36:11;;;;;;;7.78;2.65;;;;;;;23.41;41.24;99351.06;5034000;28;20120;-91
2022/07/15 05:38:40;;;;;;;4.53;2.42;;;;;;;23.48;41.08;99396.63;5033933;28;20030;-91
2022/07/15 05:41:05;;;;;;;5.80;3.25;;;;;;;24.22;40.93;99460.97;5034047;28;20116;-91
2022/07/15 05:43:30;;;;;;;7.03;2.80;;;;;;;23.91;40.73;99448.53;5034190;28;20110;-91
2022/07/15 05:45:56;;;;;;;3.70;2.25;;;;;;;24.45;40.46;99483.13;5021959;28;20030;-89
2022/07/15 05:48:21;;;;;;;4.10;2.75;;;;;;;23.63;40.25;99341.97;5024915;28;20168;-91
2022/07/15 05:50:47;;;;;;;3.58;2.40;;;;;;;24.06;40.24;99406.19;5017880;28;20029;-90
2022/07/15 05:53:12;;;;;;;2.95;2.67;;;;;;;24.13;40.33;99421.31;5030337;28;20130;-90
2022/07/15 05:55:38;;;;;;;4.60;2.35;;;;;;;24.07;40.25;99418.59;5013590;28;20477;-90
2022/07/15 05:58:08;;;;;;;5.05;3.22;;;;;;;24.68;40.42;99474.50;5013828;28;20081;-90
2022/07/15 06:00:35;;;;;;;4.38;2.70;;;;;;;24.73;40.21;99471.78;5016651;28;20431;-89
2022/07/15 06:03:01;;;;;;;2.70;2.05;;;;;;;24.04;39.77;99362.50;5015412;28;20036;-90
2022/07/15 06:05:28;;;;;;;6.25;2.53;;;;;;;24.57;40.17;99427.81;5037477;28;20110;-90
2022/07/15 06:07:54;;;;;;;5.63;2.63;;;;;;;24.83;39.89;99470.94;5016674;28;20063;-91
2022/07/15 06:10:20;;;;;;;3.42;2.13;;;;;;;23.78;39.62;99309.63;5027594;28;20039;-91
2022/07/15 06:12:45;;;;;;;6.55;4.07;;;;;;;24.28;39.91;99349.28;5033453;28;20033;-90
2022/07/15 06:15:11;;;;;;;3.90;2.90;;;;;;;24.79;39.54;99430.19;5024522;28;20033;-90
2022/07/15 06:17:37;;;;;;;4.70;4.20;;;;;;;23.98;39.52;99296.16;5014642;28;20033;-90
2022/07/15 06:20:04;;;;;;;6.97;3.33;;;;;;;24.82;39.72;99418.03;5031997;28;20036;-91
2022/07/15 06:22:30;;;;;;;4.25;2.75;;;;;;;24.58;39.54;99372.72;5034275;28;20036;-90
2022/07/15 06:24:55;;;;;;;3.92;2.13;;;;;;;25.21;39.83;99459.53;5019399;28;20030;-90
2022/07/15 06:27:23;;;;;;;2.60;2.40;;;;;;;23.83;39.39;99222.56;5013317;28;20064;-91
2022/07/15 06:29:50;;;;;;;3.63;2.33;;;;;;;25.23;39.37;99437.63;5013990;28;20503;-90
2022/07/15 06:32:15;;;;;;;4.25;2.20;;;;;;;25.26;39.64;99429.78;5014829;28;20095;-90
2022/07/15 06:34:41;;;;;;;3.05;2.60;;;;;;;25.17;39.75;99412.53;5012996;28;20482;-90
2022/07/15 06:37:07;;;;;;;5.78;3.17;;;;;;;25.62;39.59;99456.66;5012474;28;20407;-91
2022/07/15 06:39:33;;;;;;;4.75;3.28;;;;;;;25.60;39.42;99448.81;5032655;28;20486;-91
2022/07/15 06:42:00;;;;;;;5.18;4.38;;;;;;;25.72;39.39;99463.94;5033980;28;20036;-90
2022/07/15 06:44:25;;;;;;;6.85;3.65;;;;;;;25.16;39.57;99353.34;5028495;28;20026;-90
2022/07/15 06:46:50;;;;;;;5.40;2.92;;;;;;;25.62;39.27;99424.22;5034003;28;20464;-90
2022/07/15 06:49:16;;;;;;;5.05;3.50;;;;;;;24.74;39.12;99283.59;5031791;28;20033;-90
2022/07/15 06:51:41;;;;;;;3.22;2.30;;;;;;;25.33;38.99;99354.66;5023634;28;20030;-91
2022/07/15 06:54:07;;;;;;;3.05;2.13;;;;;;;25.31;38.84;99350.59;5029282;28;20021;-90
2022/07/15 06:56:33;;;;;;;3.45;3.13;;;;;;;25.99;38.63;99426.44;5012237;28;20050;-90
2022/07/15 06:58:58;;;;;;;2.65;2.40;;;;;;;25.50;38.59;99337.25;5019951;28;20029;-92
2022/07/15 07:01:24;;;;;;;4.15;2.30;;;;;;;25.81;38.56;99373.81;5017918;28;20058;-90
2022/07/15 07:03:49;;;;;;;4.70;2.13;;;;;;;26.13;38.66;99408.50;5012630;28;20550;-91
2022/07/15 07:06:15;;;;;;;3.45;2.30;;;;;;;25.73;37.91;99339.25;5012814;28;20038;-90
2022/07/15 07:08:40;;;;;;;2.90;1.77;;;;;;;26.11;37.65;99417.97;5012387;28;20030;-90
2022/07/15 07:11:06;;;;;;;3.55;2.10;;;;;;;26.03;37.11;99376.09;5025307;28;20103;-90
2022/07/15 07:13:32;;;;;;;10.20;9.20;;;;;;;26.51;37.26;99444.72;5028911;28;20425;-90
2022/07/15 07:15:58;;;;;;;5.38;2.83;;;;;;;26.43;37.02;99425.56;5015772;28;20053;-89
2022/07/15 07:18:24;;;;;;;5.78;2.10;;;;;;;26.72;37.04;99444.53;5033825;28;20033;-90
2022/07/15 07:20:49;;;;;;;4.43;2.75;;;;;;;26.43;37.04;99404.72;5030584;28;20040;-89
2022/07/15 07:23:14;;;;;;;1.95;1.60;;;;;;;26.66;36.50;99445.66;5014362;28;20034;-89
2022/07/15 07:25:40;;;;;;;3.92;1.75;;;;;;;26.29;36.43;99366.66;5015250;28;20053;-90
2022/07/15 07:28:06;;;;;;;3.20;2.10;;;;;;;26.46;36.34;99379.78;5016856;28;20036;-90
2022/07/15 07:30:32;;;;;;;4.90;3.40;;;;;;;26.70;36.03;99398.75;5042326;28;20033;-90
2022/07/15 07:32:57;;;;;;;4.05;2.03;;;;;;;26.38;35.50;99334.38;5020882;28;20033;-89
2022/07/15 07:35:23;;;;;;;5.30;4.65;;;;;;;25.62;35.69;99243.06;5036504;28;20108;-90
2022/07/15 07:37:49;;;;;;;4.53;3.00;;;;;;;27.25;35.41;99441.81;5046534;28;20021;-89
2022/07/15 07:40:16;;;;;;;4.25;2.30;;;;;;;26.68;34.86;99348.69;5033623;28;20028;-90
2022/07/15 07:42:42;;;;;;;7.65;6.57;;;;;;;26.34;34.45;99308.19;5014956;28;20502;-89
2022/07/15 07:45:10;;;;;;;3.75;2.45;;;;;;;26.98;34.55;99380.09;5017451;28;20033;-89
2022/07/15 07:47:43;;;;;;;4.15;3.60;;;;;;;27.27;34.46;99412.50;5030340;28;20022;-90
2022/07/15 07:50:10;;;;;;;4.93;3.10;;;;;;;27.54;34.59;99435.22;5015543;28;20029;-90
2022/07/15 07:52:35;;;;;;;4.97;3.38;;;;;;;27.22;34.58;99378.16;5024896;28;20025;-89
2022/07/15 07:55:00;;;;;;;3.53;2.70;;;;;;;26.77;34.64;99299.03;5038921;28;20835;-90
2022/07/15 07:57:26;;;;;;;4.18;3.78;;;;;;;27.21;34.70;99327.75;5020974;28;20050;-89
2022/07/15 07:59:51;;;;;;;3.45;2.97;;;;;;;27.37;34.40;99339.97;5050285;28;20025;-89
2022/07/15 08:02:19;;;;;;;2.83;2.50;;;;;;;27.52;33.52;99355.25;5043069;28;20017;-89
2022/07/15 08:04:45;;;;;;;4.05;2.03;;;;;;;27.33;32.92;99309.13;5036216;28;20398;-90
2022/07/15 08:07:11;;;;;;;2.45;2.20;;;;;;;27.52;32.83;99342.50;5047759;28;20115;-89
2022/07/15 08:09:38;;;;;;;3.63;1.70;;;;;;;27.17;32.24;99276.03;5041081;28;20434;-89
2022/07/15 08:12:03;;;;;;;2.33;1.55;;;;;;;27.36;32.15;99297.69;5036927;28;20037;-90
2022/07/15 08:14:29;;;;;;;3.08;1.63;;;;;;;27.25;31.85;99271.03;5021652;28;20032;-89
2022/07/15 08:16:54;;;;;;;3.08;1.90;;;;;;;27.49;31.62;99286.09;5021032;28;20025;-90
2022/07/15 08:19:20;;;;;;;3.63;1.85;;;;;;;27.94;31.70;99343.47;5024198;28;20120;-90
2022/07/15 08:21:46;;;;;;;2.15;1.90;;;;;;;28.51;31.57;99425.63;5027757;28;20031;-90
2022/07/15 08:24:12;;;;;;;5.55;2.70;;;;;;;27.53;31.50;99242.94;5024790;28;20434;-90
2022/07/15 08:26:38;;;;;;;2.70;2.47;;;;;;;28.10;31.37;99333.97;5021510;28;20044;-90
2022/07/15 08:29:04;;;;;;;5.25;2.47;;;;;;;27.56;31.49;99222.56;5031219;28;20030;-90
2022/07/15 08:31:30;;;;;;;9.45;7.72;;;;;;;28.26;31.14;99307.41;5029846;28;20029;-90
2022/07/15 08:33:56;;;;;;;4.78;3.67;;;;;;;27.80;30.74;99220.53;5026797;28;20037;-91
2022/07/15 08:36:22;;;;;;;3.30;2.25;;;;;;;29.18;30.54;99433.38;5049784;28;20033;-90
2022/07/15 08:38:48;;;;;;;4.15;2.95;;;;;;;28.98;30.73;99356.53;5052293;28;20068;-92
2022/07/15 08:41:15;;;;;;;2.38;1.90;;;;;;;28.69;30.40;99290.81;5028800;28;20529;-91
2022/07/15 08:43:41;;;;;;;4.72;3.03;;;;;;;28.12;30.33;99206.09;5015273;28;20037;-91
2022/07/15 08:46:07;;;;;;;3.10;1.90;;;;;;;29.02;30.08;99326.84;5017544;28;20396;-91
2022/07/15 08:48:36;;;;;;;6.28;4.07;;;;;;;28.89;30.05;99305.91;5033673;28;20041;-90
2022/07/15 08:51:04;;;;;;;3.17;2.40;;;;;;;29.67;30.02;99403.47;5034525;28;20045;-91
2022/07/15 08:53:30;;;;;;;2.83;1.98;;;;;;;29.27;29.80;99339.88;5021657;28;20034;-90
2022/07/15 08:55:57;;;;;;;6.55;2.50;;;;;;;29.83;29.32;99405.88;5033819;28;20064;-89
2022/07/15 08:58:23;;;;;;;2.00;1.83;;;;;;;29.81;29.38;99365.34;5035720;28;20083;-89
2022/07/15 09:00:49;;;;;;;6.05;3.35;;;;;;;28.22;29.21;99135.31;5032089;28;20501;-89
2022/07/15 09:03:14;;;;;;;4.90;2.40;;;;;;;29.52;29.08;99262.34;5026502;28;20029;-90
2022/07/15 09:05:40;;;;;;;11.27;10.15;;;;;;;29.54;28.88;99246.53;5019668;28;20017;-90
2022/07/15 09:08:10;;;;;;;5.28;3.58;;;;;;;29.30;28.43;99184.25;5017063;28;20021;-90
2022/07/15 09:10:44;;;;;;;8.35;5.22;;;;;;;30.76;28.22;99395.91;5015335;28;20463;-90
2022/07/15 09:13:34;;;;;;;2.83;2.47;;;;;;;30.66;27.64;99369.75;5022306;28;20415;-90
2022/07/15 09:16:08;;;;;;;7.00;5.00;;;;;;;30.76;27.48;99368.66;5042321;28;20017;-90
2022/07/15 09:18:43;;;;;;;7.22;3.55;;;;;;;30.97;27.00;99369.69;5056919;28;20033;-89
2022/07/15 09:21:20;;;;;;;4.20;3.40;;;;;;;31.35;27.23;99388.25;5042008;28;20022;-90
2022/07/15 09:23:46;;;;;;;5.07;2.80;;;;;;;31.41;26.91;99367.88;5039810;28;20079;-89
2022/07/15 09:26:41;;;;;;;7.63;3.70;;;;;;;31.72;26.50;99380.59;5032812;28;20128;-90
2022/07/15 09:33:34;;;;;;;6.43;3.85;;;;;;;31.38;26.62;99305.75;5021785;28;20040;-90
2022/07/15 09:35:01;;;;;;;4.20;1.50;;;;;;;32.22;25.35;99368.00;5025141;28;20067;-89
2022/07/15 09:37:27;;;;;;;6.10;3.33;;;;;;;31.78;25.69;99279.09;5023374;28;20033;-89
2022/07/15 09:39:57;;;;;;;5.15;3.22;;;;;;;32.44;25.51;99355.28;5032030;28;20033;-90
2022/07/15 09:42:23;;;;;;;2.80;1.53;;;;;;;32.55;25.14;99335.44;5018808;28;20435;-90
2022/07/15 09:44:50;;;;;;;3.25;2.15;;;;;;;31.74;25.11;99181.78;5013305;28;20288;-90
2022/07/15 09:47:18;;;;;;;6.35;2.88;;;;;;;32.77;24.73;99312.56;5031308;28;20029;-89
2022/07/15 09:49:44;;;;;;;6.05;3.33;;;;;;;33.45;24.94;99362.50;5042425;28;20037;-89
2022/07/15 09:52:14;;;;;;;2.25;1.55;;;;;;;33.67;24.26;99379.72;5027166;28;20024;-90
2022/07/15 09:54:46;;;;;;;7.10;4.13;;;;;;;33.15;24.36;99244.06;5030112;28;20631;-89
2022/07/15 09:57:15;;;;;;;7.35;4.97;;;;;;;33.64;23.78;99296.31;5032105;28;20045;-90
2022/07/15 09:59:45;;;;;;;4.65;2.67;;;;;;;33.53;23.62;99294.34;5025185;28;20041;-90
2022/07/15 10:02:11;;;;;;;6.15;3.90;;;;;;;33.74;23.86;99325.22;5015982;28;20037;-89
2022/07/15 10:04:37;;;;;;;11.80;9.23;;;;;;;34.05;23.89;99324.75;5025804;28;20038;-89
2022/07/15 10:07:04;;;;;;;3.38;1.98;;;;;;;33.83;23.18;99289.56;5051900;28;20080;-89
2022/07/15 10:09:32;;;;;;;3.05;2.70;;;;;;;34.47;23.12;99352.84;5041519;28;20489;-88
2022/07/15 10:12:04;;;;;;;6.88;4.57;;;;;;;34.69;22.92;99343.38;5038187;28;20033;-89
2022/07/15 10:14:57;;;;;;;4.45;3.88;;;;;;;34.71;22.23;99341.88;5020263;28;20025;-89
2022/07/15 10:17:35;;;;;;;3.63;1.98;;;;;;;34.42;22.54;99268.91;5017236;28;20033;-89
2022/07/15 10:20:15;;;;;;;3.75;2.25;;;;;;;34.16;22.31;99237.44;5024681;28;20038;-90
2022/07/15 10:22:56;;;;;;;5.50;2.33;;;;;;;34.80;22.56;99333.53;5032383;28;20032;-90
2022/07/15 10:25:55;;;;;;;2.58;1.60;;;;;;;34.73;21.75;99301.19;5049466;28;20032;-89
2022/07/15 10:28:41;;;;;;;3.00;1.50;;;;;;;35.14;21.59;99324.06;5051024;28;20528;-90
2022/07/15 10:31:33;;;;;;;4.03;2.25;;;;;;;35.27;21.37;99297.38;5024366;28;20117;-88
2022/07/15 10:34:04;;;;;;;2.95;1.30;;;;;;;35.53;20.81;99314.22;5012973;28;20042;-91
2022/07/15 10:36:49;;;;;;;2.95;1.33;;;;;;;35.69;20.85;99310.75;5019437;28;20033;-91
2022/07/15 10:39:17;;;;;;;3.85;1.83;;;;;;;35.78;20.67;99322.38;5018220;28;20411;-89
2022/07/15 10:41:53;;;;;;;3.38;2.65;;;;;;;35.97;20.47;99308.81;5014840;28;20080;-90
2022/07/15 10:44:19;;;;;;;2.53;2.33;;;;;;;35.74;20.94;99259.09;5023909;28;20116;-90
2022/07/15 10:46:45;;;;;;;2.88;1.75;;;;;;;35.85;20.25;99246.47;5027138;28;20032;-89
2022/07/15 10:49:11;;;;;;;7.03;4.05;;;;;;;36.33;20.42;99298.72;5028112;28;20030;-91
2022/07/15 10:51:36;;;;;;;3.47;1.85;;;;;;;35.71;20.27;99193.88;5026835;28;20026;-90
2022/07/15 10:54:42;;;;;;;2.92;1.90;;;;;;;36.44;20.34;99300.63;5036184;28;20037;-90
2022/07/15 10:57:08;;;;;;;3.20;2.20;;;;;;;36.07;19.63;99222.28;5030610;28;20124;-88
2022/07/15 10:59:46;;;;;;;3.40;1.58;;;;;;;36.45;20.31;99263.72;5028237;28;20098;-88
2022/07/15 11:02:14;;;;;;;4.22;1.30;;;;;;;36.88;19.60;99289.47;5035731;28;20036;-89
2022/07/15 11:04:41;;;;;;;2.80;1.50;;;;;;;36.21;19.58;99179.44;5014043;28;20029;-89
2022/07/15 11:07:07;;;;;;;3.90;1.77;;;;;;;37.04;19.64;99286.66;5029477;28;20043;-90
2022/07/15 11:09:48;;;;;;;3.83;1.98;;;;;;;37.11;19.14;99286.81;5026894;28;20029;-88
2022/07/15 11:12:19;;;;;;;3.65;2.03;;;;;;;36.57;19.50;99282.84;5021231;28;20044;-89
2022/07/15 11:14:48;;;;;;;4.45;1.83;;;;;;;36.31;19.93;99279.84;5033417;28;20091;-89
2022/07/15 11:17:17;;;;;;;5.70;2.20;;;;;;;35.46;20.61;99195.16;5032307;28;20083;-89
2022/07/15 11:19:46;;;;;;;4.60;2.85;;;;;;;36.08;19.59;99282.38;5035494;28;20093;-89
2022/07/15 11:22:11;;;;;;;2.65;1.55;;;;;;;35.50;19.57;99149.38;5038131;28;20024;-89
2022/07/15 11:24:37;;;;;;;4.80;1.98;;;;;;;35.90;19.00;99201.47;5044441;28;20026;-89
2022/07/15 11:27:02;;;;;;;2.97;2.22;;;;;;;36.26;19.04;99239.63;5029112;28;20121;-88
2022/07/15 11:29:47;;;;;;;3.47;1.38;;;;;;;36.26;19.21;99211.34;5017082;28;20091;-89
2022/07/15 11:32:14;;;;;;;2.92;1.75;;;;;;;36.08;19.16;99150.47;5029060;28;20241;-88
2022/07/15 11:34:42;;;;;;;3.92;1.50;;;;;;;36.42;19.03;99157.19;5014455;28;20030;-88
2022/07/15 11:37:10;;;;;;;3.00;1.60;;;;;;;37.29;19.10;99260.50;5017487;28;20044;-88
2022/07/15 11:39:36;;;;;;;2.65;2.00;;;;;;;36.86;19.00;99156.94;5033795;28;20119;-88
2022/07/15 11:44:51;;;;;;;3.60;1.90;;;;;;;37.93;18.82;99255.44;5024913;28;20087;-90